• Join FlightAware (Why Join?)
  • Login
  • US Flag 
10:29PM EDT


 

Airport Tracker/Info


-or-


 

Live Flight TrackerFlight Track Log ✈ NKS971 ✈ 13-Jul-2013 ✈ KDFW - KIWA

Flight Track Log - Related Links

Times and Time Zones

All times are in EDT time to prevent confusion due to time zone crossing. See the NKS971 flight status page for this flight to view local times or setup timezone preferences in your user account.

Time Position Orientation Groundspeed Altitude Reporting Facility
EDT Latitude Longitude Course Direction KTS MPH feet Rate Location/Type
01:27AM 32.8600 -97.0520 North 173 199 2,200  Level FlightAware
01:27AM 32.8260 -97.0530 181° South 220 253 2,900 1,500 Climbing FlightAware
01:28AM 32.7890 -97.0530 180° South 255 293 4,000 2,460 Climbing FlightAware
01:28AM 32.7700 -97.0530 180° South 262 302 4,800 2,640 Climbing FlightAware
01:29AM 32.7350 -97.0620 192° South 283 326 6,000 2,580 Climbing FlightAware
01:29AM 32.7250 -97.0750 228° Southwest 286 329 6,600 3,300 Climbing FlightAware
01:29AM 32.7200 -97.0990 256° West 283 326 7,500 2,820 Climbing FlightAware
01:29AM 32.7200 -97.1380 270° West 292 336 8,700 2,460 Climbing FlightAware
01:30AM 32.7200 -97.1580 270° West 297 342 9,200 2,280 Climbing FlightAware
01:30AM 32.7210 -97.2290 271° West 323 372 10,800 1,740 Climbing FlightAware
01:31AM 32.7240 -97.3080 273° West 369 425 11,600 1,440 Climbing FlightAware
01:32AM 32.7350 -97.4130 277° West 406 467 12,900 2,160 Climbing FlightAware
01:33AM 32.7440 -97.5020 277° West 404 465 14,800 2,340 Climbing FlightAware
01:33AM 32.7510 -97.5780 276° West 417 480 15,800 1,500 Climbing FlightAware
01:34AM 32.7610 -97.6780 277° West 435 501 16,800 1,800 Climbing FlightAware
01:35AM 32.7710 -97.7810 277° West 439 505 18,400 2,820 Climbing FlightAware
01:35AM 32.7790 -97.8770 276° West 410 472 20,800 2,520 Climbing FlightAware
01:36AM 32.7880 -97.9690 277° West 415 478 21,900 1,500 Climbing FlightAware
01:37AM 32.7980 -98.0680 277° West 423 487 23,000 1,380 Climbing FlightAware
01:37AM 32.8070 -98.1670 276° West 431 496 23,900 1,260 Climbing FlightAware
01:38AM 32.8160 -98.2660 276° West 441 507 24,800 720 Climbing FlightAware
01:39AM 32.8270 -98.3920 276° West 444 511 25,200 900 Climbing FlightAware
01:40AM 32.8380 -98.5090 276° West 469 540 26,300 1,260 Climbing FlightAware
01:40AM 32.8480 -98.6210 276° West 478 550 27,000 1,020 Climbing FlightAware
01:41AM 32.8560 -98.7130 276° West 478 550 27,700 900 Climbing FlightAware
01:42AM 32.8670 -98.8430 276° West 489 563 28,300 780 Climbing FlightAware
01:42AM 32.8760 -98.9510 276° West 494 568 28,900 960 Climbing FlightAware
01:43AM 32.8860 -99.0680 276° West 493 567 29,700 960 Climbing FlightAware
01:44AM 32.8990 -99.2200 276° West 496 571 30,500 960 Climbing FlightAware
01:45AM 32.9080 -99.3280 276° West 495 570 31,300 1,440 Climbing FlightAware
01:45AM 32.9170 -99.4390 276° West 483 556 32,500 1,140 Climbing FlightAware
01:46AM 32.9270 -99.5580 276° West 489 563 33,000 900 Climbing FlightAware
01:47AM 32.9350 -99.6610 275° West 485 558 33,800 1,080 Climbing FlightAware
01:48AM 32.9430 -99.7680 275° West 483 556 34,500 540 Climbing FlightAware
01:48AM 32.9510 -99.8720 275° West 483 556 34,600 60 Climbing FlightAware
01:49AM 32.9570 -99.9530 275° West 483 556 34,600 1,020 Level FlightAware
01:50AM 32.9690 -100.1000 276° West 483 556 36,000 660 Climbing FlightAware
01:51AM 32.9840 -100.2960 275° West 484 557 36,000  Level FlightAware
01:51AM 32.9900 -100.3820 275° West 484 557 36,000  Level FlightAware
01:52AM 32.9970 -100.4920 274° West 483 556 36,000  Level FlightAware
01:53AM 33.0060 -100.6040 276° West 482 555 36,000  Level FlightAware
01:54AM 33.0130 -100.7150 274° West 482 555 36,000  Level FlightAware
01:54AM 33.0230 -100.8340 276° West 479 551 36,000  Level FlightAware
01:55AM 33.0290 -100.9480 274° West 479 551 36,000  Level FlightAware
01:56AM 33.0340 -101.0290 274° West 479 551 36,000  Level FlightAware
01:56AM 33.0400 -101.1360 274° West 479 551 36,000  Level FlightAware
01:57AM 33.0450 -101.2190 274° West 479 551 36,000  Level FlightAware
01:58AM 33.0500 -101.3020 274° West 479 551 36,000  Level FlightAware
01:59AM 33.0560 -101.4100 274° West 479 551 36,000  Level FlightAware
01:59AM 33.0610 -101.4910 274° West 479 551 36,000  Level FlightAware
02:00AM 33.0670 -101.5980 274° West 479 551 36,000  Level FlightAware
02:01AM 33.0720 -101.6790 274° West 479 551 36,000  Level FlightAware
02:01AM 33.0780 -101.7870 274° West 479 551 36,000  Level FlightAware
02:02AM 33.0830 -101.8670 274° West 479 551 36,000  Level FlightAware
02:03AM 33.1060 -102.1380 276° West 486 559 36,000  Level FlightAware
02:03AM 33.1100 -102.2200 273° West 486 559 36,000  Level FlightAware
02:04AM 33.1150 -102.3300 273° West 486 559 36,000  Level FlightAware
02:05AM 33.1180 -102.4140 272° West 486 559 36,000  Level FlightAware
02:05AM 33.1220 -102.4980 273° West 486 559 36,000  Level FlightAware
02:06AM 33.1270 -102.6100 273° West 486 559 36,000  Level FlightAware
02:07AM 33.1310 -102.6920 273° West 486 559 36,000  Level FlightAware
02:07AM 33.1340 -102.7740 273° West 486 559 36,000  Level FlightAware
02:08AM 33.1380 -102.8560 273° West 486 559 36,000  Level FlightAware
02:09AM 33.1430 -102.9660 273° West 486 559 36,000  Level FlightAware
02:09AM 33.1460 -103.0480 273° West 486 559 36,000  Level FlightAware
02:10AM 33.1510 -103.1570 273° West 486 559 36,000  Level FlightAware
02:11AM 33.1550 -103.2600 273° West 486 559 36,000  Level FlightAware
02:11AM 33.1590 -103.3420 273° West 486 559 36,000  Level FlightAware
02:12AM 33.1630 -103.4240 273° West 486 559 36,000  Level FlightAware
02:13AM 33.1947 -103.7661 273° West 479 551 36,000  Level Albuquerque Center
02:14AM 33.2019 -103.9278 273° West 487 560 36,000  Level Albuquerque Center
02:15AM 33.2089 -104.1014 273° West 486 559 36,000  Level Albuquerque Center
02:16AM 33.2150 -104.2617 273° West 485 558 36,000  Level Albuquerque Center
02:17AM 33.2206 -104.3950 273° West 491 565 36,000  Level Albuquerque Center
02:18AM 33.2269 -104.5556 273° West 490 564 36,000  Level Albuquerque Center
02:19AM 33.2325 -104.7517 272° West 490 564 36,000  Level Albuquerque Center
02:20AM 33.2392 -104.9092 273° West 479 551 36,000  Level Albuquerque Center
02:21AM 33.2456 -105.0683 273° West 481 554 36,000  Level Albuquerque Center
02:22AM 33.2511 -105.2286 272° West 484 557 36,000  Level Albuquerque Center
02:23AM 33.2278 -105.3833 260° West 475 547 36,000  Level Albuquerque Center
02:24AM 33.1931 -105.5361 255° West 479 551 36,000  Level Albuquerque Center
02:25AM 33.1603 -105.6889 256° West 479 551 36,000 -60 Level Albuquerque Center
02:26AM 33.1239 -105.8394 254° West 476 548 35,900 -60 Descending Albuquerque Center
02:27AM 33.0883 -105.9911 254° West 476 548 35,900  Level Albuquerque Center
02:28AM 33.0525 -106.1422 254° West 476 548 36,000  Climbing Albuquerque Center
02:29AM 33.0178 -106.2939 255° West 477 549 36,000  Level Albuquerque Center
02:30AM 32.9919 -106.4489 259° West 484 557 36,000  Level Albuquerque Center
02:31AM 33.0050 -106.6042 276° West 483 556 36,000  Level Albuquerque Center
02:32AM 33.0164 -106.7622 275° West 482 555 36,000 -60 Level Albuquerque Center
02:33AM 33.0294 -106.9217 276° West 485 558 35,900 -60 Descending Albuquerque Center
02:34AM 33.0419 -107.0786 275° West 483 556 35,900  Level Albuquerque Center
02:35AM 33.0536 -107.2381 275° West 485 558 35,900  Level Albuquerque Center
02:36AM 33.0656 -107.3958 275° West 485 558 36,000  Climbing Albuquerque Center
02:37AM 33.0764 -107.5531 275° West 482 555 36,000  Level Albuquerque Center
02:38AM 33.0867 -107.7131 274° West 485 558 36,000 -60 Level Albuquerque Center
02:39AM 33.0994 -107.8694 276° West 481 554 35,900 -60 Descending Albuquerque Center
02:40AM 33.1097 -108.0294 274° West 483 556 35,900  Level Albuquerque Center
02:41AM 33.1214 -108.1872 275° West 482 555 36,000  Climbing Albuquerque Center
02:42AM 33.1314 -108.3439 274° West 478 550 35,900  Descending Albuquerque Center
02:43AM 33.1417 -108.4981 275° West 471 542 36,000  Climbing Albuquerque Center
02:44AM 33.1553 -108.6808 275° West 464 534 35,900 -240 Descending Albuquerque Center
02:45AM 33.1644 -108.8336 274° West 463 533 35,600 -660 Descending Albuquerque Center
02:46AM 33.1739 -108.9867 274° West 464 534 34,600 -900 Descending Albuquerque Center
02:47AM 33.1828 -109.1425 274° West 473 544 33,900 -360 Descending Albuquerque Center
02:48AM 33.1903 -109.2992 273° West 474 545 33,900  Level Albuquerque Center
02:49AM 33.2011 -109.4525 275° West 469 540 34,000 -600 Climbing Albuquerque Center
02:50AM 33.2106 -109.6064 274° West 466 536 32,700 -2,340 Descending Albuquerque Center
02:51AM 33.2217 -109.7672 275° West 482 555 29,300 -2,160 Descending Albuquerque Center
02:57AM 33.3360 -110.5760 275° West 353 406 18,400 -1,680 Descending FlightAware
02:58AM 33.3330 -110.6570 267° West 353 406 18,400  Level FlightAware
02:58AM 33.3310 -110.6970 267° West 353 406 18,400  Level FlightAware
02:59AM 33.3270 -110.7780 267° West 353 406 18,400 -3,720 Level FlightAware
02:59AM 33.2680 -110.8680 232° Southwest 312 359 12,700 -4,800 Descending FlightAware
03:00AM 33.2530 -110.9310 254° West 307 353 11,700 -1,260 Descending FlightAware
03:01AM 33.2350 -111.0030 253° West 311 358 11,000 -840 Descending FlightAware
03:02AM 33.2130 -111.0910 253° West 300 345 10,400 -660 Descending FlightAware
03:02AM 33.1980 -111.1530 254° West 300 345 10,000 -360 Descending FlightAware
03:03AM 33.1840 -111.2070 253° West 300 345 10,000  Level FlightAware
03:04AM 33.1720 -111.2530 253° West 300 345 10,000 -2,520 Level FlightAware
03:04AM 33.1580 -111.3170 255° West 247 284 7,100 -3,420 Descending FlightAware
03:05AM 33.1530 -111.3450 258° West 240 276 6,700 -480 Descending FlightAware
03:05AM 33.1450 -111.3760 253° West 240 276 6,700 -1,320 Level FlightAware
03:05AM 33.1590 -111.3910 318° Northwest 223 257 5,900 -1,740 Descending FlightAware
03:06AM 33.1650 -111.4240 282° West 209 241 5,600 -780 Descending FlightAware
03:06AM 33.1690 -111.4550 279° West 198 228 5,200 -1,020 Descending FlightAware
03:07AM 33.1730 -111.4810 280° West 204 235 4,700 -1,200 Descending FlightAware
03:07AM 33.1860 -111.5120 297° West 191 220 4,100 -1,020 Descending FlightAware
03:08AM 33.2020 -111.5310 315° West 166 191 3,700 -660 Descending FlightAware
03:08AM 33.2170 -111.5480 317° Northwest 152 175 3,500 -660 Descending FlightAware
03:09AM 33.2320 -111.5660 315° West 149 171 3,100 -480 Descending FlightAware
03:09AM 33.2460 -111.5830 315° West 147 169 3,000 -720 Descending FlightAware
03:10AM 33.2667 -111.6000 315° West 131 151 2,200 -900 Descending Phoenix TRACON
03:11AM 33.3000 -111.6333 320° Northwest 135 155 1,500 -720 Descending Phoenix TRACON